Latest Weather Observations for Terrey Hills

IDN60801

Issued at 8:12 pm EDT Wednesday 1 April 2015 (issued every 30 minutes, with the page automatically refreshed every 10 minutes)

About weather observations | Map of weather stations | Latest weather observations for NSW | Other Formats
Station Details ID: 066059 Name: TERREY HILLS AWS Lat: -33.69 Lon: 151.23 Height: 199.0 m
Data from the previous 72 hours. | See also: Recent months at Terrey Hills
Date/Time
EDT
Temp
°C
App
Temp
°C
Dew
Point
Rel
Hum
%
Delta-T
°C
Wind Press
QNH
hPa
Press
MSL
hPa
Rain
since 9 am
mm
Dir
 
Spd
km/h
Gust
km/h
Spd
kts
Gust
kts
01/08:00pm 20.0 21.4 18.7 92 0.8 NE 9 15 5 8 - - 0.0
01/07:30pm 20.0 21.8 18.7 92 0.8 NE 7 17 4 9 - - 0.0
01/07:00pm 20.4 22.2 18.7 90 1.1 NNE 7 13 4 7 - - 0.0
01/06:30pm 20.9 22.7 18.7 87 1.4 NE 7 15 4 8 - - 0.0
01/06:00pm 21.6 23.0 18.6 83 1.9 NE 9 17 5 9 - - 0.0
01/05:30pm 22.2 23.2 18.6 80 2.3 NE 11 19 6 10 - - 0.0
01/05:00pm 22.7 23.7 18.7 78 2.5 NE 11 26 6 14 - - 0.0
01/04:30pm 23.0 23.8 18.1 74 3.1 NNE 11 19 6 10 - - 0.0
01/04:00pm 23.7 25.2 18.8 74 3.1 NNE 9 20 5 11 - - 0.0
01/03:30pm 22.9 25.1 19.1 79 2.4 NNE 6 9 3 5 - - 0.0
01/03:00pm 22.6 24.9 19.4 82 2.1 NE 6 9 3 5 - - 0.0
01/02:30pm 22.3 23.9 18.3 78 2.5 NNE 7 17 4 9 - - 0.0
01/02:00pm 22.2 24.0 18.8 81 2.2 NE 7 15 4 8 - - 0.0
01/01:30pm 22.8 24.2 17.9 74 3.1 NE 7 19 4 10 - - 0.0
01/01:00pm 22.4 23.9 19.0 81 2.2 NE 9 17 5 9 - - 0.0
01/12:30pm 22.5 24.5 18.7 79 2.4 NNE 6 11 3 6 - - 0.0
01/12:00pm 22.4 23.7 18.4 78 2.5 N 9 20 5 11 - - 0.0
01/11:30am 21.7 23.4 18.5 82 2.0 N 7 19 4 10 - - 0.0
01/11:00am 20.8 23.0 19.6 93 0.8 N 7 13 4 7 - - 0.0
01/10:30am 19.8 22.7 19.1 96 0.4 NW 2 6 1 3 - - 0.0
01/10:00am 19.4 21.8 18.7 96 0.4 NNW 4 9 2 5 - - 0.0
01/09:30am 20.4 23.2 19.7 96 0.4 NE 4 7 2 4 - - 0.0
01/09:00am 19.5 22.2 19.5 100 0.0 NNE 4 6 2 3 - - 12.0
01/08:30am 17.5 19.3 17.5 100 0.0 NW 4 6 2 3 - - 12.0
01/08:00am 17.7 20.4 17.7 100 0.0 CALM 0 0 0 0 - - 12.0
01/07:30am 16.6 18.8 16.6 100 0.0 CALM 0 0 0 0 - - 12.0
01/07:00am 16.5 18.7 16.5 100 0.0 CALM 0 0 0 0 - - 12.0
01/06:30am 16.2 18.3 16.2 100 0.0 CALM 0 0 0 0 - - 12.0
01/06:00am 16.5 17.9 16.5 100 0.0 WSW 4 6 2 3 - - 12.0
01/05:30am 16.9 18.5 16.9 100 0.0 W 4 6 2 3 - - 12.0
01/05:00am 16.4 17.4 16.4 100 0.0 W 6 7 3 4 - - 9.4
01/04:30am 16.3 17.1 16.3 100 0.0 W 7 9 4 5 - - 8.8
01/04:00am 16.4 17.4 16.4 100 0.0 W 6 7 3 4 - - 8.8
01/03:30am 16.4 17.4 16.4 100 0.0 WNW 6 7 3 4 - - 8.8
01/03:00am 17.0 19.4 17.0 100 0.0 CALM 0 4 0 2 - - 8.8
01/02:30am 17.1 19.5 17.1 100 0.0 CALM 0 4 0 2 - - 8.8
01/02:00am 16.9 18.5 16.9 100 0.0 NW 4 6 2 3 - - 8.8
01/01:30am 17.1 18.1 16.9 99 0.1 NNW 7 13 4 7 - - 8.8
01/01:00am 17.0 19.3 16.7 98 0.2 CALM 0 0 0 0 - - 7.4
01/12:30am 17.1 19.3 16.5 96 0.4 CALM 0 0 0 0 - - 7.4
01/12:00am 17.4 19.6 16.6 95 0.5 CALM 0 0 0 0 - - 7.4
 
Date/Time
EDT
Temp
°C
App
Temp
°C
Dew
Point
Rel
Hum
%
Delta-T
°C
Wind Press
QNH
hPa
Press
MSL
hPa
Rain
since 9 am
mm
Dir
 
Spd
km/h
Gust
km/h
Spd
kts
Gust
kts
31/11:30pm 17.9 20.2 16.8 93 0.7 CALM 0 0 0 0 - - 7.4
31/11:00pm 18.3 19.9 17.0 92 0.8 SE 4 4 2 2 - - 7.4
31/10:30pm 18.4 20.5 17.1 92 0.8 ESE 2 4 1 2 - - 7.4
31/10:00pm 18.5 20.2 17.2 92 0.8 E 4 7 2 4 - - 7.4
31/09:30pm 18.6 19.4 17.3 92 0.8 ENE 9 15 5 8 - - 7.4
31/09:00pm 18.6 19.0 17.3 92 0.8 E 11 17 6 9 - - 7.4
31/08:30pm 18.4 19.1 17.1 92 0.8 E 9 13 5 7 - - 7.4
31/08:00pm 18.2 19.5 17.2 94 0.6 E 6 13 3 7 - - 7.4
31/07:30pm 18.5 19.9 17.3 93 0.7 ESE 6 9 3 5 - - 7.4
31/07:00pm 18.7 19.7 16.9 89 1.1 ESE 7 11 4 6 - - 7.4
31/06:30pm 19.2 19.7 16.6 85 1.6 ESE 9 15 5 8 - - 7.4
31/06:00pm 19.6 19.5 15.9 79 2.2 ESE 11 17 6 9 - - 7.4
31/05:30pm 20.2 20.6 16.4 79 2.3 ESE 9 15 5 8 - - 7.4
31/05:00pm 20.5 20.8 17.1 81 2.1 ESE 11 17 6 9 - - 7.4
31/04:30pm 20.5 20.5 17.1 81 2.1 ESE 13 20 7 11 - - 7.4
31/04:00pm 21.0 21.4 16.2 74 2.9 E 9 17 5 9 - - 7.4
31/03:30pm 21.8 21.7 15.9 69 3.6 E 11 17 6 9 - - 7.4
31/03:00pm 21.4 22.0 15.9 71 3.3 E 7 13 4 7 - - 7.4
31/02:30pm 22.6 24.0 17.3 72 3.3 N 6 11 3 6 - - 7.4
31/02:00pm 22.0 22.0 16.3 70 3.5 NE 11 19 6 10 - - 7.4
31/01:30pm 21.4 22.2 17.2 77 2.6 NE 9 17 5 9 - - 7.4
31/01:00pm 20.3 21.8 17.5 84 1.7 N 6 11 3 6 - - 7.4
31/12:30pm 19.5 21.1 18.3 93 0.7 N 7 13 4 7 - - 7.4
31/12:00pm 18.3 19.0 18.0 98 0.2 N 11 17 6 9 - - 7.4
31/11:30am 17.8 19.1 17.6 99 0.1 NNE 7 13 4 7 - - 7.4
31/11:00am 18.2 20.3 18.2 100 0.0 NE 4 7 2 4 - - 7.2
31/10:30am 17.2 18.3 17.0 99 0.1 N 7 13 4 7 - - 6.8
31/10:00am 17.9 18.8 17.6 98 0.2 ENE 9 20 5 11 - - 0.4
31/09:30am 18.4 20.0 17.9 97 0.3 S 6 7 3 4 - - 0.0
31/09:00am 18.1 20.0 17.6 97 0.3 S 4 7 2 4 - - 14.6
31/08:30am 18.0 20.3 17.7 98 0.2 S 2 6 1 3 - - 14.6
31/08:00am 17.5 19.3 17.3 99 0.1 SSE 4 7 2 4 - - 14.6
31/07:30am 17.3 19.0 17.1 99 0.1 S 4 6 2 3 - - 14.6
31/07:00am 17.0 18.6 17.0 100 0.0 SSW 4 7 2 4 - - 14.6
31/06:30am 16.8 18.4 16.8 100 0.0 SSW 4 6 2 3 - - 14.6
31/06:00am 16.9 18.1 16.9 100 0.0 SSW 6 9 3 5 - - 14.6
31/05:30am 16.9 17.5 16.9 100 0.0 SW 9 13 5 7 - - 14.6
31/05:00am 16.9 17.5 16.9 100 0.0 SSW 9 17 5 9 - - 14.6
31/04:30am 16.6 18.1 16.6 100 0.0 W 4 7 2 4 - - 14.4
31/04:00am 16.4 17.4 16.4 100 0.0 WNW 6 9 3 5 - - 14.4
31/03:30am 16.4 17.2 16.4 100 0.0 W 7 11 4 6 - - 14.4
31/03:00am 16.4 17.2 16.4 100 0.0 W 7 11 4 6 - - 14.4
31/02:30am 16.4 17.2 16.4 100 0.0 W 7 9 4 5 - - 14.4
31/02:00am 16.5 17.6 16.5 100 0.0 WNW 6 9 3 5 - - 14.4
31/01:30am 16.7 17.8 16.5 99 0.1 W 6 7 3 4 - - 14.4
31/01:00am 17.2 18.8 17.0 99 0.1 N 4 6 2 3 - - 14.4
31/12:30am 17.1 18.7 16.8 98 0.2 NNE 4 6 2 3 - - 14.4
31/12:00am 17.0 17.5 16.5 97 0.3 N 9 11 5 6 - - 14.2
 
Date/Time
EDT
Temp
°C
App
Temp
°C
Dew
Point
Rel
Hum
%
Delta-T
°C
Wind Press
QNH
hPa
Press
MSL
hPa
Rain
since 9 am
mm
Dir
 
Spd
km/h
Gust
km/h
Spd
kts
Gust
kts
30/11:30pm 16.8 16.9 16.5 98 0.2 N 11 13 6 7 - - 13.6
30/11:00pm 17.1 18.1 16.8 98 0.2 NNE 7 13 4 7 - - 12.8
30/10:30pm 18.2 18.9 17.0 93 0.7 NNE 9 20 5 11 - - 6.8
30/10:00pm 19.2 21.2 17.9 92 0.8 SSE 4 6 2 3 - - 0.6
30/09:30pm 19.2 21.1 17.7 91 0.9 S 4 6 2 3 - - 0.6
30/09:00pm 19.4 21.3 17.7 90 1.1 ESE 4 6 2 3 - - 0.6
30/08:30pm 19.4 22.2 17.9 91 0.9 CALM 0 0 0 0 - - 0.6
30/08:00pm 19.3 21.3 17.8 91 0.9 E 4 6 2 3 - - 0.6
30/07:30pm 19.4 20.9 17.7 90 1.1 E 6 7 3 4 - - 0.6
30/07:00pm 19.6 21.1 17.6 88 1.2 E 6 9 3 5 - - 0.6
30/06:30pm 20.0 21.4 17.8 87 1.4 E 7 13 4 7 - - 0.6
30/06:00pm 20.1 20.9 17.3 84 1.7 E 9 13 5 7 - - 0.6
30/05:30pm 20.2 20.8 16.8 81 2.1 E 9 15 5 8 - - 0.6
30/05:00pm 20.6 20.2 16.2 76 2.7 ENE 13 20 7 11 - - 0.6
30/04:30pm 22.2 22.7 16.5 70 3.5 NE 9 15 5 8 - - 0.6
30/04:00pm 22.4 22.7 16.9 71 3.4 NE 11 19 6 10 - - 0.6
30/03:30pm 21.4 21.2 16.8 75 2.8 ENE 13 17 7 9 - - 0.6
30/03:00pm 21.2 20.8 16.2 73 3.0 ENE 13 22 7 12 - - 0.6
30/02:30pm 22.8 22.6 17.5 72 3.3 ENE 15 28 8 15 - - 0.6
30/02:00pm 21.7 21.3 16.2 71 3.3 E 13 20 7 11 - - 0.6
30/01:30pm 22.0 22.5 16.5 71 3.4 E 9 17 5 9 - - 0.6
30/01:00pm 21.6 21.0 15.7 69 3.6 ESE 13 19 7 10 - - 0.6
30/12:30pm 20.8 20.4 17.2 80 2.2 ESE 15 24 8 13 - - 0.6
30/12:00pm 20.7 21.6 16.1 75 2.8 SE 6 9 3 5 - - 0.6
30/11:30am 19.7 20.7 16.3 81 2.1 SSE 6 13 3 7 - - 0.6
30/11:00am 19.5 19.6 14.5 73 2.9 SSE 7 15 4 8 - - 0.6
30/10:30am 19.8 21.4 17.0 84 1.7 SE 4 9 2 5 - - 0.6
30/10:00am 18.7 20.1 17.4 92 0.8 W 6 9 3 5 - - 0.6
30/09:30am 17.5 17.2 16.5 94 0.6 W 13 17 7 9 - - 0.6
30/09:00am 17.6 18.7 17.0 96 0.4 WNW 7 9 4 5 - - 0.0
30/08:30am 17.4 18.4 16.8 96 0.4 WNW 7 11 4 6 - - 0.0
30/08:00am 17.1 18.0 16.6 97 0.3 W 7 11 4 6 - - 0.0
30/07:30am 17.1 18.0 16.6 97 0.3 W 7 9 4 5 - - 0.0
30/07:00am 17.1 17.6 16.6 97 0.3 W 9 11 5 6 - - 0.0
30/06:30am 17.2 17.7 16.6 96 0.4 WNW 9 9 5 5 - - 0.0
30/06:00am 17.4 18.6 16.8 96 0.4 W 6 7 3 4 - - 0.0
30/05:30am 17.2 18.3 16.7 97 0.3 W 6 6 3 3 - - 0.0
30/05:00am 17.4 19.7 16.8 96 0.4 CALM 0 0 0 0 - - 0.0
30/04:30am 17.4 19.7 16.8 96 0.4 CALM 0 0 0 0 - - 0.0
30/04:00am 17.5 19.9 16.9 96 0.4 CALM 0 0 0 0 - - 0.0
30/03:30am 17.8 20.2 17.0 95 0.5 CALM 0 0 0 0 - - 0.0
30/03:00am 18.4 21.1 17.8 96 0.4 CALM 0 0 0 0 - - 0.0
30/02:30am 18.4 21.0 17.6 95 0.5 CALM 0 0 0 0 - - 0.0
30/02:00am 18.4 21.0 17.4 94 0.6 CALM 0 0 0 0 - - 0.0
30/01:30am 19.1 21.8 17.8 92 0.8 CALM 0 0 0 0 - - 0.0
30/01:00am 19.4 22.2 17.9 91 0.9 CALM 0 0 0 0 - - 0.0
30/12:30am 19.7 21.8 18.0 90 1.1 N 4 6 2 3 - - 0.0
30/12:00am 19.8 21.5 18.1 90 1.1 NNE 6 9 3 5 - - 0.0
 
Date/Time
EDT
Temp
°C
App
Temp
°C
Dew
Point
Rel
Hum
%
Delta-T
°C
Wind Press
QNH
hPa
Press
MSL
hPa
Rain
since 9 am
mm
Dir
 
Spd
km/h
Gust
km/h
Spd
kts
Gust
kts
29/11:30pm 19.8 21.4 17.9 89 1.2 NNE 6 9 3 5 - - 0.0
29/11:00pm 19.5 21.0 17.6 89 1.2 NNE 6 9 3 5 - - 0.0
29/10:30pm 19.3 20.7 17.4 89 1.2 NE 6 11 3 6 - - 0.0
29/10:00pm 19.2 20.5 17.2 88 1.2 NE 6 15 3 8 - - 0.0
29/09:30pm 19.2 20.5 17.0 87 1.3 NE 6 13 3 7 - - 0.0
29/09:00pm 19.1 20.2 16.7 86 1.5 NE 6 13 3 7 - - 0.0
29/08:30pm 19.1 19.6 16.5 85 1.6 NE 9 17 5 9 - - 0.0

Other Formats:

Comma delimited format used in spreadsheet applications
http://www.bom.gov.au/fwo/IDN60801/IDN60801.94759.axf

JavaScript Object Notation format (JSON) in row-major order
http://www.bom.gov.au/fwo/IDN60801/IDN60801.94759.json